Latest Weather Observations for Armidale Airport

IDN60801

Issued at 11:33 pm EST Monday 25 May 2015 (issued every 30 minutes, with the page automatically refreshed every 10 minutes)

About weather observations | Map of weather stations | Latest weather observations for NSW | Other Formats
Station Details ID: 056238 Name: ARMIDALE AIRPORT AWS Lat: -30.53 Lon: 151.62 Height: 1079.0 m
Data from the previous 72 hours. | See also: Recent months for locations in New South Wales
Date/Time
EST
Temp
°C
App
Temp
°C
Dew
Point
Rel
Hum
%
Delta-T
°C
Wind Press
QNH
hPa
Press
MSL
hPa
Rain
since 9 am
mm
Dir
 
Spd
km/h
Gust
km/h
Spd
kts
Gust
kts
25/11:30pm 6.1 3.9 5.1 93 0.5 SE 6 9 3 5 1030.1 1029.0 0.0
25/11:00pm 6.0 3.7 4.6 91 0.6 ENE 6 9 3 5 1030.1 1029.0 0.0
25/10:30pm 7.1 4.9 5.4 89 0.8 SSW 6 6 3 3 1030.5 1029.3 0.0
25/10:00pm 7.2 6.1 5.0 86 1.0 CALM 0 0 0 0 1031.1 1030.0 0.0
25/09:30pm 7.0 4.8 5.3 89 0.8 NE 6 7 3 4 1031.2 1030.1 0.0
25/09:00pm 7.0 5.8 4.7 85 1.1 CALM 0 0 0 0 1031.2 1030.1 0.0
25/08:30pm 8.1 5.6 5.0 81 1.5 SSW 7 9 4 5 1031.6 1030.5 0.0
25/08:00pm 9.2 6.5 5.4 77 1.8 SSE 9 11 5 6 1031.4 1030.2 0.0
25/07:30pm 9.5 6.3 4.9 73 2.2 S 11 15 6 8 1031.1 1030.0 0.0
25/07:00pm 9.5 6.2 4.7 72 2.3 SSW 11 13 6 7 1031.5 1030.4 0.0
25/06:30pm 9.2 6.1 3.6 68 2.6 SSW 9 9 5 5 1030.6 1029.4 0.0
25/06:00pm 9.7 6.6 1.6 57 3.6 SW 7 7 4 4 1030.1 1029.0 0.0
25/05:30pm 9.6 6.7 1.3 56 3.7 WNW 6 6 3 3 1030.0 1028.9 0.0
25/05:00pm 10.5 7.4 1.3 53 4.1 WNW 7 9 4 5 1029.9 1028.8 0.0
25/04:30pm 13.0 9.7 2.5 49 4.9 WNW 9 9 5 5 1029.9 1028.8 0.0
25/04:00pm 12.9 9.2 2.5 49 4.8 W 11 15 6 8 1029.6 1028.4 0.0
25/03:30pm 14.1 9.9 1.7 43 5.7 WSW 13 15 7 8 1030.0 1028.9 0.0
25/03:00pm 13.7 9.3 2.6 47 5.2 WSW 15 19 8 10 1030.0 1028.9 0.0
25/02:30pm 14.1 9.6 4.1 51 4.9 WSW 17 22 9 12 1030.4 1029.2 0.0
25/02:00pm 14.4 11.6 3.2 47 5.3 WSW 7 15 4 8 1030.1 1029.0 0.0
25/01:30pm 14.8 11.8 2.0 42 6.0 NW 7 13 4 7 1030.5 1029.3 0.0
25/01:00pm 14.8 11.8 4.2 49 5.2 N 9 19 5 10 1030.6 1029.4 0.0
25/12:30pm 14.4 11.0 4.1 50 5.0 W 11 17 6 9 1031.0 1029.9 0.0
25/12:00pm 13.9 10.7 3.1 48 5.1 N 9 24 5 13 1031.5 1030.4 0.0
25/11:30am 13.1 9.7 1.8 46 5.2 NNE 9 13 5 7 1032.2 1031.1 0.0
25/11:00am 13.0 10.0 4.2 55 4.2 E 9 11 5 6 1032.8 1031.7 0.0
25/10:30am 12.4 10.3 5.6 63 3.3 ESE 6 7 3 4 1033.0 1031.9 0.0
25/10:00am 10.7 9.8 6.1 73 2.3 CALM 0 0 0 0 1033.2 1032.2 0.0
25/09:30am 10.0 8.8 7.9 87 1.1 NNE 4 7 2 4 1033.5 1032.4 0.0
25/09:00am 8.4 6.6 8.1 98 0.2 ENE 7 9 4 5 1033.0 1031.9 0.4
25/08:30am 6.8 4.4 6.8 100 0.0 ENE 9 9 5 5 1032.9 1031.8 0.4
25/08:00am 5.9 3.6 5.9 100 0.0 ENE 7 9 4 5 1032.7 1031.6 0.4
25/07:45am 5.1 2.7 5.1 100 0.0 E 7 9 4 5 1032.6 1031.5 0.4
25/07:30am 4.2 2.2 4.2 100 0.0 E 4 7 2 4 1032.6 1031.5 0.4
25/07:13am 3.2 0.0 3.2 100 0.0 ENE 9 11 5 6 1032.4 1031.3 0.4
25/07:00am 2.4 -1.3 2.4 100 0.0 ENE 11 13 6 7 1032.2 1031.1 0.4
25/06:33am 2.4 -2.1 2.4 100 0.0 ENE 15 15 8 8 1032.0 1030.9 0.2
25/06:30am 2.5 -1.9 2.5 100 0.0 ENE 15 15 8 8 1031.9 1030.8 0.2
25/06:22am 2.4 -2.1 2.4 100 0.0 ENE 15 15 8 8 1031.8 1030.7 0.2
25/06:00am 1.8 -2.4 1.7 99 0.0 ENE 13 15 7 8 1031.8 1030.7 0.2
25/05:30am 2.5 -0.4 2.4 99 0.0 E 7 11 4 6 1031.7 1030.6 0.2
25/05:00am 2.7 -1.7 2.6 99 0.0 ENE 15 15 8 8 1031.7 1030.6 0.2
25/04:35am 2.8 -1.6 2.7 99 0.0 ENE 15 17 8 9 1031.5 1030.4 0.2
25/04:30am 3.0 -1.4 2.9 99 0.0 ENE 15 17 8 9 1031.5 1030.4 0.2
25/04:00am 2.0 -1.8 1.9 99 0.0 ENE 11 13 6 7 1031.7 1030.6 0.2
25/03:39am 2.2 -1.5 2.1 99 0.0 ENE 11 13 6 7 1031.7 1030.6 0.2
25/03:30am 3.0 -1.4 2.9 99 0.0 ENE 15 17 8 9 1031.6 1030.5 0.2
25/03:26am 3.5 -0.8 3.4 99 0.0 ENE 15 17 8 9 1031.6 1030.5 0.2
25/03:00am 4.4 0.3 4.3 99 0.0 E 15 17 8 9 1031.9 1030.8 0.2
25/02:30am 4.1 0.7 4.0 99 0.0 E 11 13 6 7 1031.9 1030.8 0.2
25/02:00am 4.4 0.3 4.3 99 0.0 E 15 17 8 9 1032.1 1031.0 0.2
25/01:58am 4.4 0.3 4.3 99 0.0 E 15 17 8 9 1032.1 1031.0 0.2
25/01:37am 4.3 0.6 4.2 99 0.0 E 13 15 7 8 1032.0 1030.9 0.2
25/01:30am 4.9 1.3 4.8 99 0.0 E 13 15 7 8 1032.1 1031.0 0.2
25/01:05am 5.0 1.0 4.9 99 0.0 E 15 15 8 8 1032.1 1031.0 0.2
25/01:00am 4.9 0.9 4.8 99 0.0 E 15 15 8 8 1032.1 1031.0 0.2
25/12:30am 4.8 1.1 4.7 99 0.0 E 13 15 7 8 1032.2 1031.1 0.2
25/12:25am 4.8 1.1 4.7 99 0.0 E 13 15 7 8 1032.2 1031.1 0.2
25/12:00am 5.1 1.5 5.0 99 0.0 E 13 15 7 8 1032.2 1031.1 0.2
 
Date/Time
EST
Temp
°C
App
Temp
°C
Dew
Point
Rel
Hum
%
Delta-T
°C
Wind Press
QNH
hPa
Press
MSL
hPa
Rain
since 9 am
mm
Dir
 
Spd
km/h
Gust
km/h
Spd
kts
Gust
kts
24/11:30pm 5.6 1.7 5.5 99 0.0 E 15 17 8 9 1032.1 1031.0 0.2
24/11:00pm 5.7 1.9 5.6 99 0.0 E 15 17 8 9 1032.0 1030.9 0.2
24/10:30pm 6.0 2.2 5.9 99 0.0 E 15 19 8 10 1032.0 1030.9 0.2
24/10:00pm 6.3 2.6 6.2 99 0.0 E 15 17 8 9 1032.1 1031.0 0.2
24/09:30pm 5.8 2.3 5.5 98 0.1 E 13 15 7 8 1032.2 1031.1 0.2
24/09:00pm 6.1 3.1 5.8 98 0.1 E 11 13 6 7 1032.4 1031.3 0.2
24/08:30pm 5.6 2.1 5.3 98 0.1 E 13 17 7 9 1032.2 1031.1 0.2
24/08:00pm 5.2 1.6 4.8 97 0.2 ENE 13 13 7 7 1032.0 1030.9 0.2
24/07:30pm 6.3 2.7 4.9 91 0.7 ENE 13 15 7 8 1031.7 1030.6 0.2
24/07:00pm 7.0 3.4 4.8 86 1.0 E 13 15 7 8 1031.5 1030.4 0.2
24/06:30pm 7.8 4.5 4.7 81 1.5 E 11 15 6 8 1031.4 1030.2 0.2
24/06:00pm 9.1 5.2 5.3 77 1.8 ESE 15 20 8 11 1030.8 1029.7 0.2
24/05:30pm 9.1 5.5 4.9 75 2.0 SE 13 17 7 9 1030.7 1029.6 0.2
24/05:00pm 10.0 6.4 5.0 71 2.4 SE 13 15 7 8 1030.7 1029.6 0.2
24/04:30pm 11.0 7.4 4.9 66 3.0 SE 13 17 7 9 1030.6 1029.4 0.2
24/04:00pm 12.3 8.3 4.8 60 3.6 ESE 15 19 8 10 1030.1 1029.0 0.2
24/03:30pm 12.8 9.2 4.8 58 3.9 ESE 13 19 7 10 1030.1 1029.0 0.2
24/03:00pm 13.1 9.5 5.0 58 4.0 ESE 13 19 7 10 1029.9 1028.8 0.2
24/02:30pm 13.0 9.2 3.9 54 4.4 E 13 20 7 11 1030.0 1028.9 0.2
24/02:00pm 13.0 9.3 4.4 56 4.1 E 13 22 7 12 1029.9 1028.8 0.2
24/01:30pm 13.2 9.6 4.9 57 4.1 ESE 13 19 7 10 1029.8 1028.6 0.2
24/01:00pm 12.6 9.0 4.8 59 3.8 E 13 20 7 11 1029.9 1028.8 0.0
24/12:30pm 12.4 8.4 5.1 61 3.6 E 15 26 8 14 1030.4 1029.2 0.0
24/12:00pm 11.9 7.2 5.3 64 3.2 ESE 19 24 10 13 1030.7 1029.6 0.0
24/11:30am 12.1 7.3 5.7 65 3.2 ENE 20 28 11 15 1031.2 1030.1 0.0
24/11:00am 10.3 6.5 5.9 74 2.1 E 15 24 8 13 1031.7 1030.6 0.0
24/10:30am 10.2 5.8 6.4 77 1.9 ENE 19 24 10 13 1031.9 1030.8 0.0
24/10:00am 8.8 3.7 6.1 83 1.3 ENE 22 28 12 15 1031.8 1030.7 0.0
24/09:57am 9.0 4.4 6.4 84 1.3 ENE 20 26 11 14 1031.8 1030.7 0.0
24/09:47am 9.0 5.1 7.3 89 0.9 E 17 24 9 13 1031.8 1030.7 0.0
24/09:30am 9.1 5.6 7.4 89 0.9 E 15 20 8 11 1031.7 1030.6 0.0
24/09:00am 8.0 4.5 7.1 94 0.4 E 15 20 8 11 1031.5 1030.4 0.2
24/08:30am 7.2 4.0 6.9 98 0.1 E 13 17 7 9 1031.1 1030.0 0.2
24/08:00am 6.2 3.2 6.2 100 0.0 ENE 11 13 6 7 1031.0 1029.9 0.2
24/07:49am 6.0 3.4 6.0 100 0.0 ENE 9 13 5 7 1031.0 1029.9 0.2
24/07:30am 5.2 2.4 5.2 100 0.0 E 9 9 5 5 1030.9 1029.8 0.2
24/07:00am 3.1 -0.1 3.0 99 0.0 ENE 9 11 5 6 1030.5 1029.3 0.2
24/06:30am 2.9 -0.3 2.8 99 0.0 E 9 11 5 6 1030.1 1029.0 0.2
24/06:00am 3.3 -0.6 3.2 99 0.0 E 13 15 7 8 1029.5 1028.3 0.2
24/05:33am 3.7 -0.2 3.6 99 0.0 E 13 15 7 8 1029.1 1028.0 0.2
24/05:30am 3.8 0.0 3.7 99 0.0 E 13 15 7 8 1029.1 1028.0 0.2
24/05:00am 4.5 0.4 4.4 99 0.0 E 15 20 8 11 1028.7 1027.5 0.2
24/04:52am 5.0 0.6 4.9 99 0.0 E 17 20 9 11 1028.6 1027.4 0.2
24/04:30am 5.7 1.1 5.6 99 0.0 E 19 22 10 12 1028.6 1027.4 0.2
24/04:00am 5.8 1.6 5.8 100 0.0 E 17 24 9 13 1028.5 1027.3 0.2
24/03:36am 5.3 1.4 5.3 100 0.0 E 15 17 8 9 1028.4 1027.2 0.2
24/03:30am 4.9 0.9 4.9 100 0.0 E 15 17 8 9 1028.4 1027.2 0.2
24/03:13am 3.9 0.1 3.8 99 0.0 E 13 15 7 8 1028.2 1027.1 0.2
24/03:11am 3.8 -0.4 3.7 99 0.0 E 15 15 8 8 1028.2 1027.1 0.2
24/03:01am 4.2 0.1 4.1 99 0.0 E 15 17 8 9 1028.2 1027.1 0.2
24/03:00am 4.1 -0.1 4.0 99 0.0 E 15 17 8 9 1028.2 1027.1 0.2
24/02:56am 3.8 -0.4 3.7 99 0.0 E 15 17 8 9 1028.4 1027.2 0.2
24/02:34am 3.8 -0.4 3.7 99 0.0 E 15 15 8 8 1028.5 1027.3 0.2
24/02:30am 3.8 0.0 3.7 99 0.0 E 13 15 7 8 1028.6 1027.4 0.2
24/02:06am 4.9 1.6 4.8 99 0.0 E 11 13 6 7 1028.7 1027.5 0.2
24/02:00am 4.7 1.4 4.6 99 0.0 ENE 11 13 6 7 1028.8 1027.6 0.2
24/01:30am 3.2 -0.4 3.1 99 0.0 ENE 11 13 6 7 1028.8 1027.6 0.2
24/01:00am 3.3 -0.3 3.2 99 0.0 ENE 11 11 6 6 1028.8 1027.6 0.2
24/12:35am 3.6 0.1 3.5 99 0.0 ENE 11 13 6 7 1028.7 1027.5 0.2
24/12:30am 3.7 0.2 3.6 99 0.0 E 11 13 6 7 1028.7 1027.5 0.2
24/12:00am 4.4 1.1 4.3 99 0.0 E 11 15 6 8 1028.9 1027.7 0.2
 
Date/Time
EST
Temp
°C
App
Temp
°C
Dew
Point
Rel
Hum
%
Delta-T
°C
Wind Press
QNH
hPa
Press
MSL
hPa
Rain
since 9 am
mm
Dir
 
Spd
km/h
Gust
km/h
Spd
kts
Gust
kts
23/11:59pm 4.3 0.9 4.2 99 0.0 E 11 13 6 7 1028.9 1027.7 0.2
23/11:30pm 4.3 1.3 4.2 99 0.0 E 9 9 5 5 1028.7 1027.5 0.2
23/11:03pm 4.3 1.3 4.0 98 0.1 ENE 9 11 5 6 1028.7 1027.5 0.2
23/11:00pm 4.3 1.3 4.0 98 0.1 ENE 9 11 5 6 1028.7 1027.5 0.2
23/10:30pm 4.7 2.1 4.4 98 0.1 NE 7 9 4 5 1029.0 1027.9 0.2
23/10:00pm 5.2 2.6 4.2 93 0.5 ENE 7 9 4 5 1029.1 1028.0 0.2
23/09:30pm 5.5 2.5 4.0 90 0.7 E 9 11 5 6 1029.0 1027.9 0.2
23/09:00pm 5.6 3.1 4.6 93 0.5 ESE 7 9 4 5 1028.9 1027.7 0.2
23/08:30pm 6.3 3.4 4.8 90 0.7 ESE 9 11 5 6 1028.6 1027.4 0.2
23/08:00pm 7.0 4.3 5.5 90 0.7 SE 9 13 5 7 1028.5 1027.3 0.2
23/07:30pm 7.4 4.8 5.9 90 0.7 SSE 9 11 5 6 1028.5 1027.3 0.2
23/07:00pm 8.6 5.0 6.9 89 0.8 SSE 15 20 8 11 1028.5 1027.3 0.2
23/06:41pm 8.6 5.6 7.5 93 0.6 SE 13 19 7 10 1028.4 1027.2 0.2
23/06:30pm 8.6 5.2 7.5 93 0.6 SSE 15 22 8 12 1028.2 1027.1 0.2
23/06:17pm 8.7 5.3 7.8 94 0.5 SSE 15 20 8 11 1028.1 1026.9 0.2
23/06:00pm 9.2 6.2 7.8 91 0.7 SE 13 19 7 10 1028.0 1026.8 0.2
23/05:30pm 8.6 6.1 6.4 86 1.1 SE 9 11 5 6 1027.8 1026.6 0.2
23/05:00pm 9.8 6.5 6.2 78 1.8 SE 13 19 7 10 1027.6 1026.4 0.2
23/04:30pm 11.0 7.7 6.4 73 2.3 SE 13 19 7 10 1027.4 1026.1 0.2
23/04:00pm 11.5 7.3 5.6 67 2.9 SE 17 22 9 12 1027.1 1025.9 0.2
23/03:30pm 12.0 7.7 5.4 64 3.3 SE 17 30 9 16 1026.9 1025.7 0.2
23/03:00pm 12.1 7.3 4.6 60 3.6 SE 19 24 10 13 1026.8 1025.6 0.0
23/02:30pm 11.8 7.1 5.2 64 3.2 SE 19 26 10 14 1026.8 1025.6 0.0
23/02:00pm 12.8 8.0 5.5 61 3.6 SE 20 30 11 16 1026.7 1025.5 0.0
23/01:30pm 12.5 6.9 5.4 62 3.5 SE 24 37 13 20 1026.7 1025.5 0.0
23/01:00pm 12.5 6.8 4.7 59 3.8 SE 24 33 13 18 1026.7 1025.5 0.0
23/12:30pm 11.7 5.3 5.1 64 3.2 SE 28 39 15 21 1026.8 1025.6 0.0
23/12:00pm 12.0 5.7 5.6 65 3.1 SE 28 41 15 22 1027.0 1025.8 0.0
23/11:52am 10.7 4.1 4.2 64 3.1 SE 28 46 15 25 1027.2 1026.0 0.0
23/11:30am 11.1 4.5 4.3 63 3.3 SSE 28 39 15 21 1027.6 1026.4 0.0
23/11:00am 9.6 4.2 4.4 70 2.4 SE 22 37 12 20 1027.7 1026.5 0.0
23/10:30am 9.3 3.0 3.9 69 2.5 SE 26 41 14 22 1027.9 1026.7 0.0
23/10:00am 9.5 3.7 4.5 71 2.4 ESE 24 44 13 24 1027.6 1026.4 0.0
23/09:30am 9.2 3.2 5.4 77 1.8 SE 26 37 14 20 1027.4 1026.1 0.0
23/09:00am 8.9 4.2 6.0 82 1.4 ESE 20 30 11 16 1027.1 1025.9 0.2
23/08:30am 7.5 2.9 5.5 87 1.0 ESE 19 24 10 13 1026.8 1025.6 0.2
23/08:00am 7.0 3.0 4.8 86 1.0 ESE 15 20 8 11 1026.2 1025.0 0.2
23/07:30am 6.8 2.4 4.5 85 1.1 ESE 17 24 9 13 1025.7 1024.4 0.2
23/07:00am 6.3 1.2 4.3 87 0.9 ESE 20 30 11 16 1025.1 1023.9 0.2
23/06:30am 6.1 1.2 4.3 88 0.8 ESE 19 26 10 14 1024.8 1023.5 0.2
23/06:00am 6.3 -0.3 4.1 86 1.0 SE 28 39 15 21 1024.5 1023.2 0.2
23/05:30am 6.5 0.7 4.2 85 1.1 SE 24 37 13 20 1024.2 1023.0 0.2
23/05:00am 7.0 2.4 5.6 91 0.7 SE 19 26 10 14 1023.9 1022.6 0.2
23/04:30am 7.2 2.6 5.5 89 0.8 SE 19 24 10 13 1023.5 1022.2 0.2
23/04:00am 7.5 2.3 5.3 86 1.0 SE 22 35 12 19 1023.2 1021.9 0.2
23/03:30am 7.6 3.3 5.1 84 1.2 SE 17 26 9 14 1023.2 1021.9 0.2
23/03:00am 7.5 2.6 5.0 84 1.2 SE 20 33 11 18 1023.2 1021.9 0.2
23/02:30am 7.6 3.3 5.2 85 1.1 SE 17 32 9 17 1023.5 1022.2 0.2
23/02:00am 7.8 3.2 5.4 85 1.1 SE 19 28 10 15 1023.7 1022.4 0.2
23/01:30am 7.9 3.7 5.5 85 1.1 SE 17 24 9 13 1023.7 1022.4 0.2
23/01:00am 8.0 2.8 5.5 84 1.2 SSE 22 35 12 19 1023.5 1022.2 0.2
23/12:30am 7.9 3.7 5.9 87 1.0 SSE 17 24 9 13 1023.4 1022.1 0.2
23/12:00am 7.9 3.2 5.9 87 1.0 SSE 20 26 11 14 1023.4 1022.1 0.2

Other Formats:

Comma delimited format used in spreadsheet applications
http://www.bom.gov.au/fwo/IDN60801/IDN60801.95773.axf

JavaScript Object Notation format (JSON) in row-major order
http://www.bom.gov.au/fwo/IDN60801/IDN60801.95773.json